McDougal, AR (72441)

7:24 PM CDT on July 29, 2016 (GMT -0500)
3 Miles NW | | Change Station

Elev 351 ft 36.21 °N, 90.45 °W | Updated 2 seconds ago

Light Rain
Light Rain Mist
72.3 °F
Feels Like 72.3 °F
N
1.6
Wind Variable Wind from South
Gusts 3.1 mph

Today
High -- | Low -- °F
--% Chance of Precip.
Yesterday
High -- | Low -- °F
Precip. -- in
Pressure 29.89 in
Visibility 5.0 miles
Clouds Mostly Cloudy 11000 ft
Dew Point 72 °F
Humidity 99%
Rainfall 0.12 in
Snow Depth Not available.
6:06 AM 8:09 PM
Waning Crescent, 18% visible
METAR KPOF 292353Z AUTO 33003KT 5SM -RA BR BKN110 23/21 A2990 RMK AO2 SLP122 P0026 60038 T02280211 10306 20222 50003 TSNO
Pressure 29.89 in
Visibility 5.0 miles
Clouds Mostly Cloudy 11000 ft
Dew Point 72 °F
Humidity 99%
Rainfall 0.12 in
Snow Depth Not available.
6:06 AM 8:09 PM
Waning Crescent, 18% visible
METAR KPOF 292353Z AUTO 33003KT 5SM -RA BR BKN110 23/21 A2990 RMK AO2 SLP122 P0026 60038 T02280211 10306 20222 50003 TSNO

10-Day Weather Forecast

Almanac

Astronomy

Jul. 29, 2016 Rise Set
Actual Time
Civil Twilight
Nautical Twilight
Astronomical Twilight
Moon
Length of Visible Light
Length of Day
Tomorrow will be .
, % of the Moon is Illuminated

Today's Extremes

State Highs State Lows

Community

WunderPhotos

Upload Photos

1,928,449 photos uploaded!

WunderBlog® & News

Nearby

Air Quality

  Air Quality AQ Index Pollutant
Not available.

Snow Depth

Station Depth Elevation

Earthquake Activity

City Distance Mag. Time & Date
Minimum magnitude displayed is 2.5.

Coastal Water Temperatures

Place Temperature

Stations

Nearby Weather Stations

Station Location Temp. Windchill Dew Point Humidity Wind Precip. Elev Updated Type
                   

Watches & Warnings

There are currently no watches in effect.